sensor_id;sensor_type;location;lat;lon;timestamp;P1;durP1;ratioP1;P2;durP2;ratioP2
17614;SDS011;8926;49.720;6.576;2023-02-15T00:01:37;9.50;;;8.73;;
17614;SDS011;8926;49.720;6.576;2023-02-15T00:04:06;9.90;;;9.00;;
17614;SDS011;8926;49.720;6.576;2023-02-15T00:06:32;9.40;;;8.50;;
17614;SDS011;8926;49.720;6.576;2023-02-15T00:08:58;9.87;;;8.97;;
17614;SDS011;8926;49.720;6.576;2023-02-15T00:11:24;9.70;;;8.90;;
17614;SDS011;8926;49.720;6.576;2023-02-15T00:16:33;9.93;;;9.13;;
17614;SDS011;8926;49.720;6.576;2023-02-15T00:19:00;9.67;;;8.80;;
17614;SDS011;8926;49.720;6.576;2023-02-15T00:21:29;9.73;;;8.87;;
17614;SDS011;8926;49.720;6.576;2023-02-15T00:23:56;9.93;;;9.03;;
17614;SDS011;8926;49.720;6.576;2023-02-15T00:26:23;10.20;;;9.23;;
17614;SDS011;8926;49.720;6.576;2023-02-15T00:28:49;10.30;;;9.40;;
17614;SDS011;8926;49.720;6.576;2023-02-15T00:31:15;11.20;;;10.20;;
17614;SDS011;8926;49.720;6.576;2023-02-15T00:33:40;10.67;;;9.77;;
17614;SDS011;8926;49.720;6.576;2023-02-15T00:36:06;9.87;;;9.03;;
17614;SDS011;8926;49.720;6.576;2023-02-15T00:38:32;9.40;;;8.60;;
17614;SDS011;8926;49.720;6.576;2023-02-15T00:40:59;8.93;;;8.13;;
17614;SDS011;8926;49.720;6.576;2023-02-15T00:43:26;10.13;;;9.20;;
17614;SDS011;8926;49.720;6.576;2023-02-15T00:45:52;10.53;;;9.60;;
17614;SDS011;8926;49.720;6.576;2023-02-15T00:48:18;9.63;;;8.73;;
17614;SDS011;8926;49.720;6.576;2023-02-15T00:50:45;8.90;;;8.20;;
17614;SDS011;8926;49.720;6.576;2023-02-15T00:53:11;8.63;;;7.83;;
17614;SDS011;8926;49.720;6.576;2023-02-15T00:55:37;8.80;;;8.10;;
17614;SDS011;8926;49.720;6.576;2023-02-15T00:58:04;9.97;;;9.17;;
17614;SDS011;8926;49.720;6.576;2023-02-15T01:00:30;10.40;;;9.53;;
17614;SDS011;8926;49.720;6.576;2023-02-15T01:02:55;9.70;;;8.90;;
17614;SDS011;8926;49.720;6.576;2023-02-15T01:05:20;10.57;;;9.63;;
17614;SDS011;8926;49.720;6.576;2023-02-15T01:07:46;11.00;;;9.93;;
17614;SDS011;8926;49.720;6.576;2023-02-15T01:10:11;10.63;;;9.73;;
17614;SDS011;8926;49.720;6.576;2023-02-15T01:12:36;11.07;;;10.07;;
17614;SDS011;8926;49.720;6.576;2023-02-15T01:15:02;11.37;;;10.37;;
17614;SDS011;8926;49.720;6.576;2023-02-15T01:17:27;10.70;;;9.80;;
17614;SDS011;8926;49.720;6.576;2023-02-15T01:19:52;11.83;;;10.63;;
17614;SDS011;8926;49.720;6.576;2023-02-15T01:22:18;11.20;;;10.10;;
17614;SDS011;8926;49.720;6.576;2023-02-15T01:24:44;10.50;;;9.50;;
17614;SDS011;8926;49.720;6.576;2023-02-15T01:27:09;10.50;;;9.53;;
17614;SDS011;8926;49.720;6.576;2023-02-15T01:29:35;10.70;;;9.67;;
17614;SDS011;8926;49.720;6.576;2023-02-15T01:32:00;11.03;;;10.03;;
17614;SDS011;8926;49.720;6.576;2023-02-15T01:34:25;10.27;;;9.37;;
17614;SDS011;8926;49.720;6.576;2023-02-15T01:36:51;9.43;;;8.63;;
17614;SDS011;8926;49.720;6.576;2023-02-15T01:39:16;10.07;;;9.17;;
17614;SDS011;8926;49.720;6.576;2023-02-15T01:41:41;9.53;;;8.70;;
17614;SDS011;8926;49.720;6.576;2023-02-15T01:47:10;11.07;;;9.87;;
17614;SDS011;8926;49.720;6.576;2023-02-15T01:49:40;13.80;;;11.73;;
17614;SDS011;8926;49.720;6.576;2023-02-15T01:52:10;14.17;;;12.37;;
17614;SDS011;8926;49.720;6.576;2023-02-15T01:54:39;11.97;;;10.80;;
17614;SDS011;8926;49.720;6.576;2023-02-15T01:57:08;11.07;;;9.97;;
17614;SDS011;8926;49.720;6.576;2023-02-15T01:59:37;11.70;;;10.63;;
17614;SDS011;8926;49.720;6.576;2023-02-15T02:02:06;13.67;;;11.23;;
17614;SDS011;8926;49.720;6.576;2023-02-15T02:07:25;15.73;;;13.40;;
17614;SDS011;8926;49.720;6.576;2023-02-15T02:09:53;12.70;;;11.40;;
17614;SDS011;8926;49.720;6.576;2023-02-15T02:12:19;15.40;;;13.90;;
17614;SDS011;8926;49.720;6.576;2023-02-15T02:14:47;13.17;;;11.87;;
17614;SDS011;8926;49.720;6.576;2023-02-15T02:17:18;12.73;;;11.43;;
17614;SDS011;8926;49.720;6.576;2023-02-15T02:20:07;11.30;;;10.30;;
17614;SDS011;8926;49.720;6.576;2023-02-15T02:34:23;11.80;;;10.70;;
17614;SDS011;8926;49.720;6.576;2023-02-15T02:40:00;12.10;;;10.90;;
17614;SDS011;8926;49.720;6.576;2023-02-15T02:43:08;10.97;;;9.87;;
17614;SDS011;8926;49.720;6.576;2023-02-15T02:45:39;11.77;;;10.67;;
17614;SDS011;8926;49.720;6.576;2023-02-15T02:48:10;11.23;;;10.13;;
17614;SDS011;8926;49.720;6.576;2023-02-15T02:50:44;12.40;;;11.13;;
17614;SDS011;8926;49.720;6.576;2023-02-15T02:53:09;12.10;;;10.97;;
17614;SDS011;8926;49.720;6.576;2023-02-15T03:03:27;19.23;;;15.03;;
17614;SDS011;8926;49.720;6.576;2023-02-15T03:06:00;16.00;;;13.70;;
17614;SDS011;8926;49.720;6.576;2023-02-15T03:08:38;15.30;;;13.67;;
17614;SDS011;8926;49.720;6.576;2023-02-15T03:11:07;18.53;;;15.47;;
17614;SDS011;8926;49.720;6.576;2023-02-15T03:13:33;15.23;;;13.30;;
17614;SDS011;8926;49.720;6.576;2023-02-15T03:16:00;15.40;;;13.00;;
17614;SDS011;8926;49.720;6.576;2023-02-15T03:18:47;15.13;;;13.53;;
17614;SDS011;8926;49.720;6.576;2023-02-15T03:21:23;14.23;;;12.60;;
17614;SDS011;8926;49.720;6.576;2023-02-15T03:23:56;14.13;;;12.77;;
17614;SDS011;8926;49.720;6.576;2023-02-15T03:26:45;13.23;;;11.90;;
17614;SDS011;8926;49.720;6.576;2023-02-15T03:29:14;16.90;;;14.83;;
17614;SDS011;8926;49.720;6.576;2023-02-15T03:31:42;13.27;;;11.90;;
17614;SDS011;8926;49.720;6.576;2023-02-15T03:34:12;13.27;;;11.87;;
17614;SDS011;8926;49.720;6.576;2023-02-15T03:39:26;14.37;;;12.87;;
17614;SDS011;8926;49.720;6.576;2023-02-15T03:42:05;17.13;;;12.73;;
17614;SDS011;8926;49.720;6.576;2023-02-15T03:44:43;13.57;;;11.63;;
17614;SDS011;8926;49.720;6.576;2023-02-15T03:47:15;13.20;;;11.77;;
17614;SDS011;8926;49.720;6.576;2023-02-15T03:49:48;12.93;;;11.60;;
17614;SDS011;8926;49.720;6.576;2023-02-15T03:52:20;11.47;;;10.47;;
17614;SDS011;8926;49.720;6.576;2023-02-15T03:54:46;12.17;;;10.97;;
17614;SDS011;8926;49.720;6.576;2023-02-15T03:57:24;12.23;;;11.07;;
17614;SDS011;8926;49.720;6.576;2023-02-15T04:03:08;10.53;;;9.53;;
17614;SDS011;8926;49.720;6.576;2023-02-15T04:05:38;12.70;;;11.40;;
17614;SDS011;8926;49.720;6.576;2023-02-15T04:08:04;15.93;;;13.53;;
17614;SDS011;8926;49.720;6.576;2023-02-15T04:10:29;14.23;;;12.73;;
17614;SDS011;8926;49.720;6.576;2023-02-15T04:13:13;13.97;;;12.40;;
17614;SDS011;8926;49.720;6.576;2023-02-15T04:15:38;13.33;;;11.93;;
17614;SDS011;8926;49.720;6.576;2023-02-15T04:18:22;12.83;;;11.53;;
17614;SDS011;8926;49.720;6.576;2023-02-15T04:21:07;11.43;;;10.33;;
17614;SDS011;8926;49.720;6.576;2023-02-15T04:23:51;10.60;;;9.70;;
17614;SDS011;8926;49.720;6.576;2023-02-15T04:26:35;22.23;;;14.97;;
17614;SDS011;8926;49.720;6.576;2023-02-15T04:29:00;15.07;;;13.47;;
17614;SDS011;8926;49.720;6.576;2023-02-15T04:31:25;13.83;;;12.43;;
17614;SDS011;8926;49.720;6.576;2023-02-15T04:33:51;13.30;;;12.00;;
17614;SDS011;8926;49.720;6.576;2023-02-15T04:36:16;16.47;;;12.90;;
17614;SDS011;8926;49.720;6.576;2023-02-15T04:38:42;17.57;;;13.77;;
17614;SDS011;8926;49.720;6.576;2023-02-15T04:41:07;14.23;;;12.43;;
17614;SDS011;8926;49.720;6.576;2023-02-15T04:43:32;13.87;;;12.40;;
17614;SDS011;8926;49.720;6.576;2023-02-15T04:45:58;14.60;;;13.20;;
17614;SDS011;8926;49.720;6.576;2023-02-15T04:48:23;14.33;;;12.93;;
17614;SDS011;8926;49.720;6.576;2023-02-15T04:50:49;12.23;;;11.03;;
17614;SDS011;8926;49.720;6.576;2023-02-15T04:53:14;11.73;;;10.63;;
17614;SDS011;8926;49.720;6.576;2023-02-15T04:55:41;12.30;;;11.10;;
17614;SDS011;8926;49.720;6.576;2023-02-15T04:58:06;11.43;;;10.40;;
17614;SDS011;8926;49.720;6.576;2023-02-15T05:00:32;11.57;;;10.43;;
17614;SDS011;8926;49.720;6.576;2023-02-15T05:02:57;12.63;;;11.27;;
17614;SDS011;8926;49.720;6.576;2023-02-15T05:05:22;14.23;;;12.03;;
17614;SDS011;8926;49.720;6.576;2023-02-15T05:07:47;12.07;;;10.77;;
17614;SDS011;8926;49.720;6.576;2023-02-15T05:10:13;12.73;;;11.43;;
17614;SDS011;8926;49.720;6.576;2023-02-15T05:12:38;12.07;;;10.73;;
17614;SDS011;8926;49.720;6.576;2023-02-15T05:15:03;12.43;;;10.97;;
17614;SDS011;8926;49.720;6.576;2023-02-15T05:17:29;11.43;;;10.37;;
17614;SDS011;8926;49.720;6.576;2023-02-15T05:19:54;13.00;;;11.67;;
17614;SDS011;8926;49.720;6.576;2023-02-15T05:22:19;13.03;;;11.73;;
17614;SDS011;8926;49.720;6.576;2023-02-15T05:24:45;12.17;;;10.97;;
17614;SDS011;8926;49.720;6.576;2023-02-15T05:27:29;13.53;;;12.23;;
17614;SDS011;8926;49.720;6.576;2023-02-15T05:30:13;19.87;;;15.50;;
17614;SDS011;8926;49.720;6.576;2023-02-15T05:32:39;15.67;;;14.17;;
17614;SDS011;8926;49.720;6.576;2023-02-15T05:35:05;14.47;;;13.00;;
17614;SDS011;8926;49.720;6.576;2023-02-15T05:37:31;14.70;;;13.10;;
17614;SDS011;8926;49.720;6.576;2023-02-15T05:39:56;16.20;;;14.40;;
17614;SDS011;8926;49.720;6.576;2023-02-15T05:42:22;26.83;;;17.40;;
17614;SDS011;8926;49.720;6.576;2023-02-15T05:44:47;16.10;;;14.40;;
17614;SDS011;8926;49.720;6.576;2023-02-15T05:47:12;13.60;;;12.30;;
17614;SDS011;8926;49.720;6.576;2023-02-15T05:49:37;14.83;;;12.43;;
17614;SDS011;8926;49.720;6.576;2023-02-15T05:52:03;14.27;;;12.77;;
17614;SDS011;8926;49.720;6.576;2023-02-15T05:54:28;13.60;;;12.27;;
17614;SDS011;8926;49.720;6.576;2023-02-15T05:56:54;13.97;;;12.57;;
17614;SDS011;8926;49.720;6.576;2023-02-15T05:59:19;13.50;;;12.20;;
17614;SDS011;8926;49.720;6.576;2023-02-15T06:01:44;13.43;;;12.13;;
17614;SDS011;8926;49.720;6.576;2023-02-15T06:04:11;11.57;;;10.37;;
17614;SDS011;8926;49.720;6.576;2023-02-15T06:06:37;12.87;;;11.67;;
17614;SDS011;8926;49.720;6.576;2023-02-15T06:09:03;12.77;;;11.53;;
17614;SDS011;8926;49.720;6.576;2023-02-15T06:11:28;13.27;;;11.87;;
17614;SDS011;8926;49.720;6.576;2023-02-15T06:13:53;14.40;;;13.00;;
17614;SDS011;8926;49.720;6.576;2023-02-15T06:16:18;18.03;;;15.37;;
17614;SDS011;8926;49.720;6.576;2023-02-15T06:18:44;22.30;;;15.23;;
17614;SDS011;8926;49.720;6.576;2023-02-15T06:21:09;23.37;;;16.40;;
17614;SDS011;8926;49.720;6.576;2023-02-15T06:23:34;15.87;;;14.30;;
17614;SDS011;8926;49.720;6.576;2023-02-15T06:26:00;19.03;;;15.07;;
17614;SDS011;8926;49.720;6.576;2023-02-15T06:28:25;15.60;;;14.00;;
17614;SDS011;8926;49.720;6.576;2023-02-15T06:30:51;13.97;;;12.57;;
17614;SDS011;8926;49.720;6.576;2023-02-15T06:33:17;13.50;;;12.17;;
17614;SDS011;8926;49.720;6.576;2023-02-15T06:35:42;13.47;;;12.07;;
17614;SDS011;8926;49.720;6.576;2023-02-15T06:38:08;13.70;;;12.30;;
17614;SDS011;8926;49.720;6.576;2023-02-15T06:40:33;15.97;;;12.77;;
17614;SDS011;8926;49.720;6.576;2023-02-15T06:42:58;21.60;;;16.37;;
17614;SDS011;8926;49.720;6.576;2023-02-15T06:45:23;15.07;;;13.40;;
17614;SDS011;8926;49.720;6.576;2023-02-15T06:47:49;15.00;;;13.00;;
17614;SDS011;8926;49.720;6.576;2023-02-15T06:50:14;12.97;;;11.80;;
17614;SDS011;8926;49.720;6.576;2023-02-15T06:52:40;13.33;;;12.10;;
17614;SDS011;8926;49.720;6.576;2023-02-15T06:55:05;13.07;;;11.77;;
17614;SDS011;8926;49.720;6.576;2023-02-15T06:57:31;13.30;;;11.90;;
17614;SDS011;8926;49.720;6.576;2023-02-15T06:59:58;14.23;;;12.73;;
17614;SDS011;8926;49.720;6.576;2023-02-15T07:02:23;13.37;;;11.97;;
17614;SDS011;8926;49.720;6.576;2023-02-15T07:04:48;13.77;;;12.37;;
17614;SDS011;8926;49.720;6.576;2023-02-15T07:07:14;13.67;;;12.27;;
17614;SDS011;8926;49.720;6.576;2023-02-15T07:09:39;17.63;;;13.60;;
17614;SDS011;8926;49.720;6.576;2023-02-15T07:12:05;16.10;;;13.60;;
17614;SDS011;8926;49.720;6.576;2023-02-15T07:14:49;14.77;;;13.20;;
17614;SDS011;8926;49.720;6.576;2023-02-15T07:17:14;14.30;;;12.83;;
17614;SDS011;8926;49.720;6.576;2023-02-15T07:19:40;12.63;;;11.40;;
17614;SDS011;8926;49.720;6.576;2023-02-15T07:22:05;12.77;;;11.53;;
17614;SDS011;8926;49.720;6.576;2023-02-15T07:24:31;12.20;;;10.97;;
17614;SDS011;8926;49.720;6.576;2023-02-15T07:26:56;13.80;;;12.33;;
17614;SDS011;8926;49.720;6.576;2023-02-15T07:29:22;14.23;;;12.83;;
17614;SDS011;8926;49.720;6.576;2023-02-15T07:31:48;13.40;;;12.00;;
17614;SDS011;8926;49.720;6.576;2023-02-15T07:34:13;15.40;;;12.37;;
17614;SDS011;8926;49.720;6.576;2023-02-15T07:36:38;13.47;;;12.10;;
17614;SDS011;8926;49.720;6.576;2023-02-15T07:39:04;14.03;;;12.60;;
17614;SDS011;8926;49.720;6.576;2023-02-15T07:41:29;14.47;;;12.90;;
17614;SDS011;8926;49.720;6.576;2023-02-15T07:43:54;14.80;;;13.00;;
17614;SDS011;8926;49.720;6.576;2023-02-15T07:46:20;14.13;;;12.73;;
17614;SDS011;8926;49.720;6.576;2023-02-15T07:48:45;12.90;;;11.67;;
17614;SDS011;8926;49.720;6.576;2023-02-15T07:51:11;14.97;;;13.20;;
17614;SDS011;8926;49.720;6.576;2023-02-15T07:53:37;16.57;;;14.93;;
17614;SDS011;8926;49.720;6.576;2023-02-15T07:56:05;21.03;;;15.17;;
17614;SDS011;8926;49.720;6.576;2023-02-15T07:58:32;15.23;;;13.63;;
17614;SDS011;8926;49.720;6.576;2023-02-15T08:01:26;14.80;;;13.40;;
17614;SDS011;8926;49.720;6.576;2023-02-15T08:03:57;21.63;;;16.43;;
17614;SDS011;8926;49.720;6.576;2023-02-15T08:06:24;16.13;;;14.43;;
17614;SDS011;8926;49.720;6.576;2023-02-15T08:08:52;18.43;;;15.43;;
17614;SDS011;8926;49.720;6.576;2023-02-15T08:11:22;14.27;;;12.87;;
17614;SDS011;8926;49.720;6.576;2023-02-15T08:16:29;11.17;;;10.17;;
17614;SDS011;8926;49.720;6.576;2023-02-15T08:18:56;13.37;;;11.93;;
17614;SDS011;8926;49.720;6.576;2023-02-15T08:21:23;12.00;;;10.90;;
17614;SDS011;8926;49.720;6.576;2023-02-15T08:23:50;12.47;;;11.27;;
17614;SDS011;8926;49.720;6.576;2023-02-15T08:26:16;14.40;;;12.87;;
17614;SDS011;8926;49.720;6.576;2023-02-15T08:28:41;14.33;;;12.63;;
17614;SDS011;8926;49.720;6.576;2023-02-15T08:31:08;12.73;;;11.47;;
17614;SDS011;8926;49.720;6.576;2023-02-15T08:33:35;14.70;;;13.20;;
17614;SDS011;8926;49.720;6.576;2023-02-15T08:36:03;16.47;;;13.47;;
17614;SDS011;8926;49.720;6.576;2023-02-15T08:38:29;12.77;;;11.57;;
17614;SDS011;8926;49.720;6.576;2023-02-15T08:40:54;12.33;;;11.03;;
17614;SDS011;8926;49.720;6.576;2023-02-15T08:43:20;15.20;;;13.47;;
17614;SDS011;8926;49.720;6.576;2023-02-15T08:45:45;15.80;;;14.20;;
17614;SDS011;8926;49.720;6.576;2023-02-15T08:48:10;15.17;;;13.37;;
17614;SDS011;8926;49.720;6.576;2023-02-15T08:50:36;23.90;;;17.87;;
17614;SDS011;8926;49.720;6.576;2023-02-15T08:53:01;22.50;;;17.27;;
17614;SDS011;8926;49.720;6.576;2023-02-15T08:55:26;24.80;;;18.63;;
17614;SDS011;8926;49.720;6.576;2023-02-15T08:57:52;26.83;;;20.27;;
17614;SDS011;8926;49.720;6.576;2023-02-15T09:00:20;34.23;;;22.80;;
17614;SDS011;8926;49.720;6.576;2023-02-15T09:02:47;23.63;;;18.13;;
17614;SDS011;8926;49.720;6.576;2023-02-15T09:05:13;21.67;;;17.17;;
17614;SDS011;8926;49.720;6.576;2023-02-15T09:07:38;21.53;;;18.40;;
17614;SDS011;8926;49.720;6.576;2023-02-15T09:10:04;20.33;;;17.00;;
17614;SDS011;8926;49.720;6.576;2023-02-15T09:12:30;24.50;;;17.87;;
17614;SDS011;8926;49.720;6.576;2023-02-15T09:14:55;19.10;;;15.97;;
17614;SDS011;8926;49.720;6.576;2023-02-15T09:17:21;16.33;;;14.57;;
17614;SDS011;8926;49.720;6.576;2023-02-15T09:19:46;15.10;;;13.50;;
17614;SDS011;8926;49.720;6.576;2023-02-15T09:22:11;14.40;;;13.00;;
17614;SDS011;8926;49.720;6.576;2023-02-15T09:24:36;18.37;;;15.00;;
17614;SDS011;8926;49.720;6.576;2023-02-15T09:27:02;16.63;;;14.73;;
17614;SDS011;8926;49.720;6.576;2023-02-15T09:29:27;23.67;;;18.03;;
17614;SDS011;8926;49.720;6.576;2023-02-15T09:31:53;25.30;;;19.10;;
17614;SDS011;8926;49.720;6.576;2023-02-15T09:34:19;19.07;;;16.03;;
17614;SDS011;8926;49.720;6.576;2023-02-15T09:36:46;18.47;;;15.60;;
17614;SDS011;8926;49.720;6.576;2023-02-15T09:39:14;19.90;;;15.80;;
17614;SDS011;8926;49.720;6.576;2023-02-15T09:44:50;24.30;;;17.60;;
17614;SDS011;8926;49.720;6.576;2023-02-15T09:53:03;17.37;;;15.30;;
17614;SDS011;8926;49.720;6.576;2023-02-15T10:09:09;16.73;;;15.10;;
17614;SDS011;8926;49.720;6.576;2023-02-15T10:14:36;18.83;;;16.83;;
17614;SDS011;8926;49.720;6.576;2023-02-15T10:27:45;15.90;;;14.53;;
17614;SDS011;8926;49.720;6.576;2023-02-15T10:30:13;17.37;;;15.67;;
17614;SDS011;8926;49.720;6.576;2023-02-15T10:33:04;15.63;;;14.20;;
17614;SDS011;8926;49.720;6.576;2023-02-15T10:35:55;14.57;;;13.13;;
17614;SDS011;8926;49.720;6.576;2023-02-15T10:41:31;14.90;;;13.63;;
17614;SDS011;8926;49.720;6.576;2023-02-15T10:44:27;13.87;;;12.77;;
17614;SDS011;8926;49.720;6.576;2023-02-15T10:47:16;14.60;;;13.40;;
17614;SDS011;8926;49.720;6.576;2023-02-15T10:49:50;15.73;;;14.43;;
17614;SDS011;8926;49.720;6.576;2023-02-15T10:55:18;14.33;;;13.13;;
17614;SDS011;8926;49.720;6.576;2023-02-15T10:58:17;16.23;;;14.73;;
17614;SDS011;8926;49.720;6.576;2023-02-15T11:01:01;15.63;;;14.23;;
17614;SDS011;8926;49.720;6.576;2023-02-15T11:06:15;16.97;;;15.27;;
17614;SDS011;8926;49.720;6.576;2023-02-15T11:08:45;14.97;;;13.67;;
17614;SDS011;8926;49.720;6.576;2023-02-15T11:11:32;16.67;;;15.23;;
17614;SDS011;8926;49.720;6.576;2023-02-15T11:14:05;15.20;;;13.70;;
17614;SDS011;8926;49.720;6.576;2023-02-15T11:16:40;15.67;;;14.37;;
17614;SDS011;8926;49.720;6.576;2023-02-15T11:21:48;14.60;;;13.40;;
17614;SDS011;8926;49.720;6.576;2023-02-15T11:24:19;14.10;;;12.90;;
17614;SDS011;8926;49.720;6.576;2023-02-15T11:26:59;14.13;;;13.03;;
17614;SDS011;8926;49.720;6.576;2023-02-15T11:29:41;14.53;;;13.30;;
17614;SDS011;8926;49.720;6.576;2023-02-15T11:34:54;13.03;;;12.00;;
17614;SDS011;8926;49.720;6.576;2023-02-15T11:40:30;13.27;;;12.17;;
17614;SDS011;8926;49.720;6.576;2023-02-15T11:43:01;12.13;;;11.13;;
17614;SDS011;8926;49.720;6.576;2023-02-15T11:45:45;12.50;;;11.47;;
17614;SDS011;8926;49.720;6.576;2023-02-15T11:48:14;12.50;;;11.50;;
17614;SDS011;8926;49.720;6.576;2023-02-15T11:50:40;12.27;;;11.27;;
17614;SDS011;8926;49.720;6.576;2023-02-15T11:53:10;11.80;;;10.87;;
17614;SDS011;8926;49.720;6.576;2023-02-15T11:55:38;12.70;;;11.70;;
17614;SDS011;8926;49.720;6.576;2023-02-15T12:00:54;11.93;;;11.03;;
17614;SDS011;8926;49.720;6.576;2023-02-15T12:08:55;12.60;;;11.40;;
17614;SDS011;8926;49.720;6.576;2023-02-15T12:11:30;10.80;;;10.00;;
17614;SDS011;8926;49.720;6.576;2023-02-15T12:14:05;10.10;;;9.40;;
17614;SDS011;8926;49.720;6.576;2023-02-15T12:16:54;9.10;;;8.43;;
17614;SDS011;8926;49.720;6.576;2023-02-15T12:22:05;9.27;;;8.57;;
17614;SDS011;8926;49.720;6.576;2023-02-15T12:24:46;9.37;;;8.67;;
17614;SDS011;8926;49.720;6.576;2023-02-15T12:27:14;8.67;;;8.00;;
17614;SDS011;8926;49.720;6.576;2023-02-15T12:29:51;9.37;;;8.67;;
17614;SDS011;8926;49.720;6.576;2023-02-15T12:32:25;10.53;;;9.73;;
17614;SDS011;8926;49.720;6.576;2023-02-15T12:34:55;12.10;;;11.10;;
17614;SDS011;8926;49.720;6.576;2023-02-15T12:37:27;10.73;;;9.93;;
17614;SDS011;8926;49.720;6.576;2023-02-15T12:39:59;11.37;;;10.33;;
17614;SDS011;8926;49.720;6.576;2023-02-15T12:42:28;11.43;;;10.53;;
17614;SDS011;8926;49.720;6.576;2023-02-15T12:45:26;12.20;;;11.10;;
17614;SDS011;8926;49.720;6.576;2023-02-15T12:50:46;11.03;;;10.13;;
17614;SDS011;8926;49.720;6.576;2023-02-15T12:58:24;9.47;;;8.77;;
17614;SDS011;8926;49.720;6.576;2023-02-15T13:06:25;9.23;;;8.53;;
17614;SDS011;8926;49.720;6.576;2023-02-15T13:08:52;9.80;;;9.00;;
17614;SDS011;8926;49.720;6.576;2023-02-15T13:11:26;10.00;;;9.20;;
17614;SDS011;8926;49.720;6.576;2023-02-15T13:13:59;9.97;;;9.17;;
17614;SDS011;8926;49.720;6.576;2023-02-15T13:16:41;9.60;;;8.87;;
17614;SDS011;8926;49.720;6.576;2023-02-15T13:19:15;8.37;;;7.77;;
17614;SDS011;8926;49.720;6.576;2023-02-15T13:21:47;7.00;;;6.50;;
17614;SDS011;8926;49.720;6.576;2023-02-15T13:24:17;9.60;;;8.90;;
17614;SDS011;8926;49.720;6.576;2023-02-15T13:27:10;11.07;;;10.27;;
17614;SDS011;8926;49.720;6.576;2023-02-15T13:29:40;9.53;;;8.73;;
17614;SDS011;8926;49.720;6.576;2023-02-15T13:32:26;14.83;;;13.53;;
17614;SDS011;8926;49.720;6.576;2023-02-15T13:34:56;12.03;;;11.10;;
17614;SDS011;8926;49.720;6.576;2023-02-15T13:37:45;12.67;;;11.67;;
17614;SDS011;8926;49.720;6.576;2023-02-15T13:43:25;14.00;;;12.73;;
17614;SDS011;8926;49.720;6.576;2023-02-15T13:48:52;10.43;;;9.63;;
17614;SDS011;8926;49.720;6.576;2023-02-15T13:54:36;8.30;;;7.67;;
17614;SDS011;8926;49.720;6.576;2023-02-15T14:11:20;15.07;;;13.67;;
17614;SDS011;8926;49.720;6.576;2023-02-15T14:30:16;10.23;;;9.43;;
17614;SDS011;8926;49.720;6.576;2023-02-15T14:32:46;11.37;;;10.27;;
17614;SDS011;8926;49.720;6.576;2023-02-15T14:35:15;9.33;;;8.63;;
17614;SDS011;8926;49.720;6.576;2023-02-15T14:37:51;10.30;;;9.50;;
17614;SDS011;8926;49.720;6.576;2023-02-15T14:43:59;9.83;;;9.03;;
17614;SDS011;8926;49.720;6.576;2023-02-15T14:49:19;11.57;;;10.43;;
17614;SDS011;8926;49.720;6.576;2023-02-15T14:56:42;9.53;;;8.80;;
17614;SDS011;8926;49.720;6.576;2023-02-15T14:59:21;10.50;;;9.70;;
17614;SDS011;8926;49.720;6.576;2023-02-15T15:02:39;12.40;;;11.23;;
17614;SDS011;8926;49.720;6.576;2023-02-15T15:15:13;7.90;;;7.20;;
17614;SDS011;8926;49.720;6.576;2023-02-15T15:31:00;10.43;;;9.53;;
17614;SDS011;8926;49.720;6.576;2023-02-15T15:36:12;13.70;;;12.40;;
17614;SDS011;8926;49.720;6.576;2023-02-15T15:39:00;12.47;;;11.27;;
17614;SDS011;8926;49.720;6.576;2023-02-15T15:41:57;13.40;;;12.20;;
17614;SDS011;8926;49.720;6.576;2023-02-15T15:44:56;12.77;;;11.53;;
17614;SDS011;8926;49.720;6.576;2023-02-15T15:50:27;13.20;;;11.90;;
17614;SDS011;8926;49.720;6.576;2023-02-15T15:52:54;13.67;;;12.43;;
17614;SDS011;8926;49.720;6.576;2023-02-15T15:55:23;11.63;;;10.63;;
17614;SDS011;8926;49.720;6.576;2023-02-15T15:57:55;11.17;;;10.27;;
17614;SDS011;8926;49.720;6.576;2023-02-15T16:00:30;10.67;;;9.67;;
17614;SDS011;8926;49.720;6.576;2023-02-15T16:03:15;10.40;;;9.60;;
17614;SDS011;8926;49.720;6.576;2023-02-15T16:05:45;10.37;;;9.47;;
17614;SDS011;8926;49.720;6.576;2023-02-15T16:08:10;11.70;;;10.60;;
17614;SDS011;8926;49.720;6.576;2023-02-15T16:10:35;11.37;;;10.37;;
17614;SDS011;8926;49.720;6.576;2023-02-15T16:13:03;11.57;;;10.67;;
17614;SDS011;8926;49.720;6.576;2023-02-15T16:15:33;10.57;;;9.50;;
17614;SDS011;8926;49.720;6.576;2023-02-15T16:18:01;10.87;;;9.87;;
17614;SDS011;8926;49.720;6.576;2023-02-15T16:20:31;11.80;;;10.73;;
17614;SDS011;8926;49.720;6.576;2023-02-15T16:23:12;10.53;;;9.63;;
17614;SDS011;8926;49.720;6.576;2023-02-15T16:25:47;10.50;;;9.67;;
17614;SDS011;8926;49.720;6.576;2023-02-15T16:28:34;9.30;;;8.50;;
17614;SDS011;8926;49.720;6.576;2023-02-15T16:31:32;10.30;;;9.40;;
17614;SDS011;8926;49.720;6.576;2023-02-15T16:33:54;9.50;;;8.73;;
17614;SDS011;8926;49.720;6.576;2023-02-15T16:41:15;11.77;;;10.77;;
17614;SDS011;8926;49.720;6.576;2023-02-15T16:43:46;9.67;;;8.77;;
17614;SDS011;8926;49.720;6.576;2023-02-15T16:46:15;10.23;;;9.33;;
17614;SDS011;8926;49.720;6.576;2023-02-15T16:48:45;9.43;;;8.73;;
17614;SDS011;8926;49.720;6.576;2023-02-15T16:51:23;11.17;;;10.17;;
17614;SDS011;8926;49.720;6.576;2023-02-15T16:53:51;10.23;;;9.47;;
17614;SDS011;8926;49.720;6.576;2023-02-15T16:56:22;10.17;;;9.30;;
17614;SDS011;8926;49.720;6.576;2023-02-15T16:58:50;12.03;;;11.00;;
17614;SDS011;8926;49.720;6.576;2023-02-15T17:01:16;10.10;;;9.20;;
17614;SDS011;8926;49.720;6.576;2023-02-15T17:03:47;10.27;;;9.37;;
17614;SDS011;8926;49.720;6.576;2023-02-15T17:06:24;11.30;;;10.33;;
17614;SDS011;8926;49.720;6.576;2023-02-15T17:08:51;9.90;;;9.10;;
17614;SDS011;8926;49.720;6.576;2023-02-15T17:11:21;11.60;;;10.53;;
17614;SDS011;8926;49.720;6.576;2023-02-15T17:16:33;11.33;;;10.33;;
17614;SDS011;8926;49.720;6.576;2023-02-15T17:19:13;12.30;;;11.30;;
17614;SDS011;8926;49.720;6.576;2023-02-15T17:21:42;11.17;;;10.20;;
17614;SDS011;8926;49.720;6.576;2023-02-15T17:24:28;13.53;;;12.23;;
17614;SDS011;8926;49.720;6.576;2023-02-15T17:27:11;12.40;;;11.23;;
17614;SDS011;8926;49.720;6.576;2023-02-15T17:29:43;14.53;;;13.13;;
17614;SDS011;8926;49.720;6.576;2023-02-15T17:32:26;11.70;;;10.70;;
17614;SDS011;8926;49.720;6.576;2023-02-15T17:39:58;11.67;;;10.67;;
17614;SDS011;8926;49.720;6.576;2023-02-15T17:42:25;11.83;;;10.80;;
17614;SDS011;8926;49.720;6.576;2023-02-15T17:44:50;11.20;;;10.20;;
17614;SDS011;8926;49.720;6.576;2023-02-15T17:47:19;11.30;;;10.30;;
17614;SDS011;8926;49.720;6.576;2023-02-15T17:49:47;12.33;;;11.23;;
17614;SDS011;8926;49.720;6.576;2023-02-15T17:52:14;12.77;;;11.57;;
17614;SDS011;8926;49.720;6.576;2023-02-15T17:54:41;11.20;;;10.20;;
17614;SDS011;8926;49.720;6.576;2023-02-15T17:57:26;12.77;;;11.67;;
17614;SDS011;8926;49.720;6.576;2023-02-15T17:59:52;12.90;;;11.63;;
17614;SDS011;8926;49.720;6.576;2023-02-15T18:02:36;11.33;;;10.37;;
17614;SDS011;8926;49.720;6.576;2023-02-15T18:05:20;11.30;;;10.30;;
17614;SDS011;8926;49.720;6.576;2023-02-15T18:08:09;14.03;;;12.73;;
17614;SDS011;8926;49.720;6.576;2023-02-15T18:10:58;13.97;;;12.77;;
17614;SDS011;8926;49.720;6.576;2023-02-15T18:13:43;13.73;;;12.20;;
17614;SDS011;8926;49.720;6.576;2023-02-15T18:16:11;13.57;;;12.37;;
17614;SDS011;8926;49.720;6.576;2023-02-15T18:18:38;12.77;;;11.57;;
17614;SDS011;8926;49.720;6.576;2023-02-15T18:21:03;13.77;;;12.47;;
17614;SDS011;8926;49.720;6.576;2023-02-15T18:23:32;14.40;;;13.10;;
17614;SDS011;8926;49.720;6.576;2023-02-15T18:25:57;13.73;;;12.50;;
17614;SDS011;8926;49.720;6.576;2023-02-15T18:28:22;13.37;;;12.20;;